logo
Search for airport 
image banner adimage banner adimage banner ad
image banner ad

48VT - Cub Cove

Located in Colchester, United States

ICAO - 48VT, IATA -

Data provided by Airmate  

General information

Coordinates: N44°33'13" W73°13'53"
Elevation is 95 feet MSL.
 
View others Airports in Vermont

Operational data

Special qualification required
Current time UTC:
Current local time:
METAR: KBTV 241836Z 35015G24KT 4SM -RA BR OVC009 18/16 A2962 RMK AO2 P0000 T01780161
TAF: KBTV 241734Z 2418/2518 34015KT P6SM -SHRA SCT008 OVC013 TEMPO 2418/2421 33014G20KT 4SM -SHRA BKN008 OVC015 FM242100 35016G24KT P6SM VCSH OVC030 FM242200 34012KT P6SM VCSH OVC030 FM250000 16002KT P6SM BKN070 TEMPO 2504/2506 4SM BR SCT002 FM251100 20007KT P6SM FEW240
View NOTAMs / SUP AIP / TFR affecting this airport [VIEW]
Communications frequencies: [VIEW]

Runways:

RWY identifierQFULength (ft)Width (ft)SurfaceLDA (ft)
05W4000300WATER
23W4000300WATER

Airport contact information

Address: Colchester United States

Satellite view of 48VT